Aviation Digital Data Service (ADDS)

Output produced by METARs form (0153 UTC 25 April 2015)
found at http://aviationweather.gov/adds/metars/
 
KMFD 242330Z 2500/2524 20008KT P6SM OVC250 
     FM250200 VRB03KT P6SM OVC100 
     FM251600 10012KT P6SM -RA OVC050 
     FM251800 08015G25KT 4SM -RA BR OVC050 
     FM252000 06010G20KT 4SM -RA BR OVC007 
     FM252200 05012KT 2SM -RA BR OVC007